Time;durP1;ratioP1;P1;durP2;ratioP2;P2;SDS_P1;SDS_P2;PMS_P1;PMS_P2;Temp;Humidity;BMP_temperature;BMP_pressure;BME280_temperature;BME280_humidity;BME280_pressure;Samples;Min_cycle;Max_cycle;Signal;HPM_P1;HPM_P2
2022/01/17 00:02:24;;;;;;;;;;;;;;;-4.75;70.04;95886.75;5076731;28;938;-48
2022/01/17 00:04:50;;;;;;;;;;;;;;;-5.00;70.95;95878.03;5076531;28;1053;-48
2022/01/17 00:07:16;;;;;;;;;;;;;;;-4.91;71.53;95878.59;5075250;28;1046;-48
2022/01/17 00:09:42;;;;;;;;;;;;;;;-4.87;71.62;95874.13;5076253;28;970;-48
2022/01/17 00:12:09;;;;;;;;;;;;;;;-4.80;70.98;95880.88;5076469;28;1977;-48
2022/01/17 00:14:39;;;;;;;;;;;;;;;-4.88;71.00;95874.19;5075156;28;981;-48
2022/01/17 00:19:43;;;;;;;;;;;;;;;-4.86;70.34;95885.41;5076338;28;1028;-48
2022/01/17 00:22:10;;;;;;;;;;;;;;;-4.97;71.43;95878.81;5076421;28;1024;-48
2022/01/17 00:24:37;;;;;;;;;;;;;;;-5.00;71.84;95875.44;5076316;28;985;-48
2022/01/17 00:27:03;;;;;;;;;;;;;;;-4.93;71.31;95872.56;5076111;28;1892;-48
2022/01/17 00:29:29;;;;;;;;;;;;;;;-5.06;70.31;95876.47;5075592;28;1080;-48
2022/01/17 00:31:56;;;;;;;;;;;;;;;-5.15;71.16;95893.25;5076031;28;1906;-48
2022/01/17 00:34:22;;;;;;;;;;;;;;;-5.16;70.87;95891.56;5074681;28;1052;-48
2022/01/17 00:36:48;;;;;;;;;;;;;;;-5.07;70.86;95886.97;5076037;28;1205;-48
2022/01/17 00:39:14;;;;;;;;;;;;;;;-5.24;72.64;95879.66;5076140;28;1040;-49
2022/01/17 00:41:40;;;;;;;;;;;;;;;-5.15;72.46;95882.00;5076329;28;1057;-48
2022/01/17 00:44:06;;;;;;;;;;;;;;;-5.14;71.89;95879.34;5075598;28;1991;-48
2022/01/17 00:46:32;;;;;;;;;;;;;;;-5.07;71.70;95877.38;5075617;28;1073;-48
2022/01/17 00:48:58;;;;;;;;;;;;;;;-5.01;71.76;95874.56;5075815;28;970;-48
2022/01/17 00:51:24;;;;;;;;;;;;;;;-5.12;71.32;95879.28;5075331;28;1985;-49
2022/01/17 00:53:50;;;;;;;;;;;;;;;-5.43;72.22;95877.63;5075562;28;969;-48
2022/01/17 00:56:18;;;;;;;;;;;;;;;-5.60;73.41;95872.06;5075685;28;984;-48
2022/01/17 00:58:44;;;;;;;;;;;;;;;-5.44;72.76;95869.84;5075508;28;1056;-48
2022/01/17 01:01:10;;;;;;;;;;;;;;;-5.19;72.34;95860.38;5075881;28;1064;-48
2022/01/17 01:03:36;;;;;;;;;;;;;;;-5.20;71.30;95874.28;5075798;28;1049;-48
2022/01/17 01:06:03;;;;;;;;;;;;;;;-5.17;71.54;95869.00;5074096;28;1153;-48
2022/01/17 01:08:29;;;;;;;;;;;;;;;-5.20;71.30;95863.88;5074501;28;981;-48
2022/01/17 01:10:55;;;;;;;;;;;;;;;-5.18;71.13;95872.53;5075039;28;1992;-48
2022/01/17 01:13:23;;;;;;;;;;;;;;;-5.20;71.95;95870.84;5075351;28;1149;-48
2022/01/17 01:29:13;;;;;;;;;;;;;;;-5.59;71.69;95840.75;5074638;28;1036;-48
2022/01/17 01:31:47;;;;;;;;;;;;;;;-5.54;72.20;95841.47;5074739;28;2001;-48
2022/01/17 01:34:14;;;;;;;;;;;;;;;-5.51;71.89;95840.53;5075093;28;981;-48
2022/01/17 01:36:41;;;;;;;;;;;;;;;-5.34;70.81;95850.44;5074798;28;1221;-48
2022/01/17 01:39:07;;;;;;;;;;;;;;;-5.51;70.47;95848.34;5074830;28;1028;-48
2022/01/17 01:41:36;;;;;;;;;;;;;;;-5.59;71.14;95845.13;5074804;28;961;-48
2022/01/17 01:44:03;;;;;;;;;;;;;;;-5.47;72.43;95849.09;5074527;28;1318;-48
2022/01/17 01:46:29;;;;;;;;;;;;;;;-5.36;71.35;95844.41;5074711;28;1104;-48
2022/01/17 01:48:55;;;;;;;;;;;;;;;-5.57;70.50;95846.78;5074893;28;1059;-48
2022/01/17 01:51:21;;;;;;;;;;;;;;;-5.81;72.02;95840.53;5074235;28;1997;-48
2022/01/17 01:53:47;;;;;;;;;;;;;;;-5.65;72.72;95843.56;5074812;28;1001;-48
2022/01/17 01:56:13;;;;;;;;;;;;;;;-5.74;72.53;95842.06;5074159;28;977;-48
2022/01/17 01:58:39;;;;;;;;;;;;;;;-5.79;71.76;95843.94;5074100;28;1065;-48
2022/01/17 02:01:06;;;;;;;;;;;;;;;-5.78;72.47;95844.84;5074558;28;1093;-48
2022/01/17 02:03:31;;;;;;;;;;;;;;;-5.64;72.53;95841.81;5074669;28;982;-48
2022/01/17 02:05:57;;;;;;;;;;;;;;;-5.55;72.54;95836.31;5073395;28;1041;-48
2022/01/17 02:08:23;;;;;;;;;;;;;;;-5.44;72.10;95834.22;5074359;28;981;-48
2022/01/17 02:10:49;;;;;;;;;;;;;;;-5.57;72.19;95827.69;5072929;28;1997;-48
2022/01/17 02:13:15;;;;;;;;;;;;;;;-5.63;72.92;95820.91;5073764;28;1144;-48
2022/01/17 02:15:43;;;;;;;;;;;;;;;-5.67;72.47;95827.13;5074359;28;1239;-48
2022/01/17 02:18:12;;;;;;;;;;;;;;;-5.58;72.60;95831.19;5073977;28;1029;-48
2022/01/17 02:20:58;;;;;;;;;;;;;;;-5.49;72.07;95821.31;5074052;28;1120;-48
2022/01/17 02:23:24;;;;;;;;;;;;;;;-5.57;71.35;95819.88;5073707;28;974;-48
2022/01/17 02:25:50;;;;;;;;;;;;;;;-5.73;72.66;95817.75;5073870;28;1077;-48
2022/01/17 02:28:16;;;;;;;;;;;;;;;-5.69;73.34;95811.53;5073329;28;1097;-48
2022/01/17 02:30:42;;;;;;;;;;;;;;;-5.57;72.78;95812.06;5073756;28;1915;-48
2022/01/17 02:33:08;;;;;;;;;;;;;;;-5.58;72.38;95812.94;5073617;28;1044;-48
2022/01/17 02:35:34;;;;;;;;;;;;;;;-5.61;73.21;95810.47;5073910;28;1170;-48
2022/01/17 02:38:00;;;;;;;;;;;;;;;-5.61;71.85;95821.72;5072368;28;946;-48
2022/01/17 02:40:26;;;;;;;;;;;;;;;-6.03;72.31;95821.28;5073955;28;1031;-48
2022/01/17 02:43:01;;;;;;;;;;;;;;;-6.21;73.76;95813.09;5073451;28;1081;-48
2022/01/17 02:47:57;;;;;;;;;;;;;;;-5.90;73.86;95827.78;5073654;28;993;-48
2022/01/17 02:50:23;;;;;;;;;;;;;;;-5.80;73.32;95834.44;5073745;28;1017;-48
2022/01/17 02:52:49;;;;;;;;;;;;;;;-5.93;72.85;95831.34;5073533;28;1969;-48
2022/01/17 02:55:15;;;;;;;;;;;;;;;-5.97;72.32;95834.13;5073567;28;984;-48
2022/01/17 02:57:41;;;;;;;;;;;;;;;-5.99;72.73;95833.34;5073310;28;985;-48
2022/01/17 03:00:10;;;;;;;;;;;;;;;-5.94;72.32;95831.38;5073614;28;973;-48
2022/01/17 03:02:37;;;;;;;;;;;;;;;-5.98;74.11;95820.25;5073250;28;1066;-48
2022/01/17 03:05:07;;;;;;;;;;;;;;;-5.83;73.41;95818.06;5073433;28;965;-48
2022/01/17 03:07:33;;;;;;;;;;;;;;;-5.77;73.10;95816.09;5073529;28;1020;-48
2022/01/17 03:10:04;;;;;;;;;;;;;;;-5.71;72.09;95822.88;5073534;28;1024;-48
2022/01/17 03:12:30;;;;;;;;;;;;;;;-5.83;72.32;95816.28;5073259;28;1989;-48
2022/01/17 03:14:56;;;;;;;;;;;;;;;-5.70;72.65;95822.00;5073398;28;1040;-48
2022/01/17 03:17:23;;;;;;;;;;;;;;;-5.64;72.86;95820.97;5073236;28;985;-48
2022/01/17 03:19:49;;;;;;;;;;;;;;;-5.70;72.56;95822.84;5073449;28;1165;-48
2022/01/17 03:22:15;;;;;;;;;;;;;;;-5.85;73.63;95823.31;5073219;28;965;-47
2022/01/17 03:24:41;;;;;;;;;;;;;;;-5.85;72.14;95822.47;5073148;28;1104;-48
2022/01/17 03:27:08;;;;;;;;;;;;;;;-6.13;72.19;95811.16;5072944;28;1057;-48
2022/01/17 03:29:34;;;;;;;;;;;;;;;-6.44;72.66;95787.72;5073364;28;1019;-48
2022/01/17 03:31:59;;;;;;;;;;;;;;;-6.39;73.71;95822.28;5073336;28;1906;-48
2022/01/17 03:34:25;;;;;;;;;;;;;;;-6.21;73.33;95831.31;5072749;28;1060;-48
2022/01/17 03:36:51;;;;;;;;;;;;;;;-6.13;73.32;95818.09;5072936;28;1142;-48
2022/01/17 03:39:17;;;;;;;;;;;;;;;-6.12;72.79;95825.00;5072780;28;1021;-48
2022/01/17 03:41:44;;;;;;;;;;;;;;;-6.07;72.95;95819.66;5072997;28;1055;-48
2022/01/17 03:44:10;;;;;;;;;;;;;;;-6.07;72.39;95815.28;5073128;28;1097;-49
2022/01/17 03:46:36;;;;;;;;;;;;;;;-6.00;72.65;95823.78;5072859;28;1109;-48
2022/01/17 03:49:02;;;;;;;;;;;;;;;-5.95;71.67;95833.16;5072932;28;1047;-48
2022/01/17 03:51:28;;;;;;;;;;;;;;;-5.98;71.59;95824.59;5072980;28;1910;-48
2022/01/17 03:53:54;;;;;;;;;;;;;;;-6.06;72.02;95818.78;5072892;28;1016;-48
2022/01/17 03:56:20;;;;;;;;;;;;;;;-6.35;71.75;95818.72;5072750;28;1117;-48
2022/01/17 03:58:47;;;;;;;;;;;;;;;-6.35;72.47;95812.66;5072571;28;1029;-48
2022/01/17 04:01:13;;;;;;;;;;;;;;;-6.49;72.52;95824.31;5072987;28;993;-48
2022/01/17 04:03:39;;;;;;;;;;;;;;;-6.41;72.64;95831.91;5072567;28;1055;-48
2022/01/17 04:06:05;;;;;;;;;;;;;;;-6.30;72.70;95831.56;5072765;28;1899;-48
2022/01/17 04:08:31;;;;;;;;;;;;;;;-6.11;73.03;95834.50;5072634;28;1021;-48
2022/01/17 04:10:57;;;;;;;;;;;;;;;-5.94;73.14;95823.56;5072778;28;1898;-48
2022/01/17 04:13:24;;;;;;;;;;;;;;;-5.99;71.66;95815.94;5072541;28;1052;-48
2022/01/17 04:15:50;;;;;;;;;;;;;;;-6.35;71.74;95829.13;5072704;28;1107;-48
2022/01/17 04:18:20;;;;;;;;;;;;;;;-6.45;72.01;95827.66;5072670;28;1055;-48
2022/01/17 04:20:46;;;;;;;;;;;;;;;-6.40;72.40;95830.97;5072571;28;1093;-48
2022/01/17 04:23:12;;;;;;;;;;;;;;;-6.37;71.90;95830.06;5072643;28;1041;-48
2022/01/17 04:25:40;;;;;;;;;;;;;;;-6.41;72.14;95823.22;5072712;28;1004;-48
2022/01/17 04:28:08;;;;;;;;;;;;;;;-6.45;72.22;95832.84;5072064;28;1124;-49
2022/01/17 04:30:34;;;;;;;;;;;;;;;-6.37;72.55;95833.50;5075376;28;1040;-48
2022/01/17 04:33:00;;;;;;;;;;;;;;;-6.18;72.27;95835.59;5075827;28;1917;-47
2022/01/17 04:35:27;;;;;;;;;;;;;;;-6.25;71.51;95845.31;5075766;28;1158;-48
2022/01/17 04:38:00;;;;;;;;;;;;;;;-6.19;71.40;95846.91;5075966;28;1017;-48
2022/01/17 04:40:33;;;;;;;;;;;;;;;-6.32;71.09;95836.84;5075854;28;950;-48
2022/01/17 04:42:59;;;;;;;;;;;;;;;-6.42;72.28;95837.97;5075857;28;1267;-48
2022/01/17 04:45:25;;;;;;;;;;;;;;;-6.42;72.84;95824.97;5075912;28;1056;-48
2022/01/17 04:47:52;;;;;;;;;;;;;;;-6.32;73.21;95835.97;5075754;28;977;-48
2022/01/17 04:50:22;;;;;;;;;;;;;;;-6.39;72.76;95847.44;5075735;28;1055;-48
2022/01/17 04:52:48;;;;;;;;;;;;;;;-6.48;72.17;95844.19;5075816;28;1997;-48
2022/01/17 04:55:15;;;;;;;;;;;;;;;-6.42;72.20;95847.53;5075572;28;969;-48
2022/01/17 04:57:42;;;;;;;;;;;;;;;-6.38;71.89;95847.41;5075447;28;1020;-49
2022/01/17 05:00:09;;;;;;;;;;;;;;;-6.49;71.33;95855.53;5075624;28;1056;-48
2022/01/17 05:02:35;;;;;;;;;;;;;;;-6.66;72.02;95860.28;5075818;28;969;-48
2022/01/17 05:05:02;;;;;;;;;;;;;;;-6.55;71.92;95868.69;5075611;28;965;-48
2022/01/17 05:07:29;;;;;;;;;;;;;;;-6.48;71.76;95857.22;5075369;28;1013;-48
2022/01/17 05:09:55;;;;;;;;;;;;;;;-6.43;72.57;95851.03;5075527;28;1013;-48
2022/01/17 05:12:21;;;;;;;;;;;;;;;-6.48;72.33;95843.38;5075090;28;1987;-48
2022/01/17 05:14:50;;;;;;;;;;;;;;;-6.69;72.44;95837.00;5075376;28;1060;-48
2022/01/17 05:19:57;;;;;;;;;;;;;;;-6.38;73.40;95837.00;5075069;28;1053;-48
2022/01/17 05:22:26;;;;;;;;;;;;;;;-6.46;72.79;95831.16;5075037;28;1093;-48
2022/01/17 05:24:52;;;;;;;;;;;;;;;-6.44;72.93;95821.56;5074919;28;2111;-47
2022/01/17 05:27:18;;;;;;;;;;;;;;;-6.69;71.58;95823.97;5074917;28;1052;-48
2022/01/17 05:29:46;;;;;;;;;;;;;;;-6.62;72.89;95820.31;5074855;28;1092;-49
2022/01/17 05:32:12;;;;;;;;;;;;;;;-6.51;73.50;95826.06;5075017;28;1910;-48
2022/01/17 05:34:40;;;;;;;;;;;;;;;-6.44;73.47;95818.97;5074716;28;969;-48
2022/01/17 05:37:07;;;;;;;;;;;;;;;-6.40;73.03;95824.94;5075087;28;1166;-48
2022/01/17 05:39:33;;;;;;;;;;;;;;;-6.39;72.12;95822.28;5074914;28;1031;-48
2022/01/17 05:41:59;;;;;;;;;;;;;;;-6.49;71.55;95821.69;5073354;28;1097;-49
2022/01/17 05:44:25;;;;;;;;;;;;;;;-6.48;71.21;95823.38;5074763;28;989;-48
2022/01/17 05:46:51;;;;;;;;;;;;;;;-6.72;72.39;95829.25;5074980;28;1048;-48
2022/01/17 05:49:17;;;;;;;;;;;;;;;-6.63;73.11;95821.22;5074744;28;1073;-48
2022/01/17 05:51:43;;;;;;;;;;;;;;;-6.54;73.16;95827.94;5074409;28;1910;-47
2022/01/17 05:54:10;;;;;;;;;;;;;;;-6.58;72.81;95823.66;5074471;28;1044;-48
2022/01/17 05:56:35;;;;;;;;;;;;;;;-6.81;71.96;95839.91;5074188;28;1016;-48
2022/01/17 05:59:02;;;;;;;;;;;;;;;-6.67;72.73;95843.00;5074391;28;1044;-48
2022/01/17 06:01:28;;;;;;;;;;;;;;;-6.51;73.24;95833.03;5074104;28;930;-48
2022/01/17 06:03:54;;;;;;;;;;;;;;;-6.49;71.91;95837.31;5074528;28;1037;-49
2022/01/17 06:06:20;;;;;;;;;;;;;;;-6.49;72.45;95842.50;5074079;28;1029;-49
2022/01/17 06:08:46;;;;;;;;;;;;;;;-6.58;72.54;95852.28;5074387;28;966;-48
2022/01/17 06:11:12;;;;;;;;;;;;;;;-6.48;72.43;95867.63;5073886;28;1989;-48
2022/01/17 06:13:38;;;;;;;;;;;;;;;-6.17;72.20;95864.19;5074100;28;1092;-48
2022/01/17 06:16:04;;;;;;;;;;;;;;;-6.19;72.38;95865.97;5074096;28;1040;-48
2022/01/17 06:18:30;;;;;;;;;;;;;;;-6.21;71.70;95862.56;5074203;28;973;-48
2022/01/17 06:20:56;;;;;;;;;;;;;;;-6.22;71.77;95865.19;5073721;28;1042;-48
2022/01/17 06:23:24;;;;;;;;;;;;;;;-6.18;70.67;95859.03;5073861;28;977;-48
2022/01/17 06:25:50;;;;;;;;;;;;;;;-6.23;70.90;95846.13;5073827;28;965;-48
2022/01/17 06:28:16;;;;;;;;;;;;;;;-6.26;71.06;95847.97;5073809;28;965;-48
2022/01/17 06:30:42;;;;;;;;;;;;;;;-6.25;71.76;95849.69;5073883;28;961;-48
2022/01/17 06:33:08;;;;;;;;;;;;;;;-6.03;71.59;95858.59;5073572;28;1890;-48
2022/01/17 06:35:34;;;;;;;;;;;;;;;-5.43;70.66;95856.75;5073428;28;1208;-48
2022/01/17 06:38:02;;;;;;;;;;;;;;;-2.87;63.70;95863.34;5074136;28;974;-49
2022/01/17 06:40:28;;;;;;;;;;;;;;;-0.02;55.22;95864.22;5073198;28;1029;-49
2022/01/17 06:42:55;;;;;;;;;;;;;;;1.55;50.41;95860.91;5073501;28;1235;-49
2022/01/17 06:45:21;;;;;;;;;;;;;;;2.28;47.17;95857.50;5073568;28;1032;-49
2022/01/17 06:47:47;;;;;;;;;;;;;;;3.48;43.84;95863.16;5073846;28;1044;-49
2022/01/17 06:50:14;;;;;;;;;;;;;;;4.18;42.81;95864.72;5073366;28;1033;-49
2022/01/17 06:52:40;;;;;;;;;;;;;;;2.63;44.75;95870.34;5071881;28;1902;-49
2022/01/17 06:55:06;;;;;;;;;;;;;;;3.16;45.24;95866.09;5073332;28;1123;-49
2022/01/17 06:57:32;;;;;;;;;;;;;;;5.19;41.40;95856.75;5073322;28;1033;-48
2022/01/17 06:59:58;;;;;;;;;;;;;;;7.42;36.72;95856.53;5073626;28;969;-49
2022/01/17 07:02:24;;;;;;;;;;;;;;;8.86;33.85;95844.53;5073079;28;1116;-49
2022/01/17 07:04:50;;;;;;;;;;;;;;;9.76;32.90;95841.84;5073628;28;1077;-49
2022/01/17 07:07:17;;;;;;;;;;;;;;;9.53;32.69;95841.25;5073055;28;1116;-49
2022/01/17 07:09:43;;;;;;;;;;;;;;;6.96;36.55;95838.09;5073146;28;969;-49
2022/01/17 07:12:09;;;;;;;;;;;;;;;7.41;36.64;95832.69;5071763;28;1906;-49
2022/01/17 07:14:41;;;;;;;;;;;;;;;7.43;36.45;95826.25;5073283;28;1053;-49
2022/01/17 07:17:08;;;;;;;;;;;;;;;7.24;37.05;95821.59;5073186;28;1048;-49
2022/01/17 07:19:35;;;;;;;;;;;;;;;6.54;38.58;95821.91;5073272;28;1029;-49
2022/01/17 07:22:01;;;;;;;;;;;;;;;7.22;37.88;95828.00;5072999;28;929;-49
2022/01/17 07:24:27;;;;;;;;;;;;;;;7.87;37.18;95844.03;5073207;28;937;-49
2022/01/17 07:26:53;;;;;;;;;;;;;;;7.99;36.51;95841.19;5072937;28;1120;-49
2022/01/17 07:29:19;;;;;;;;;;;;;;;7.89;36.95;95837.63;5072862;28;1064;-49
2022/01/17 07:31:45;;;;;;;;;;;;;;;7.56;37.50;95835.91;5072818;28;2144;-48
2022/01/17 07:34:11;;;;;;;;;;;;;;;8.44;36.55;95825.94;5073252;28;937;-50
2022/01/17 07:36:37;;;;;;;;;;;;;;;9.33;34.79;95826.19;5073027;28;1205;-50
2022/01/17 07:39:03;;;;;;;;;;;;;;;10.06;33.71;95833.84;5072976;28;982;-50
2022/01/17 07:41:29;;;;;;;;;;;;;;;9.75;34.10;95820.63;5073083;28;977;-49
2022/01/17 07:43:55;;;;;;;;;;;;;;;7.17;38.77;95830.19;5072871;28;1100;-48
2022/01/17 07:46:29;;;;;;;;;;;;;;;4.59;44.13;95821.25;5073222;28;973;-49
2022/01/17 07:51:22;;;;;;;;;;;;;;;0.55;55.60;95827.88;5072545;28;1902;-49
2022/01/17 07:53:48;;;;;;;;;;;;;;;-0.20;58.49;95823.97;5072677;28;1080;-49
2022/01/17 07:56:14;;;;;;;;;;;;;;;-0.40;59.31;95830.22;5072640;28;1909;-49
2022/01/17 07:58:41;;;;;;;;;;;;;;;-0.60;59.75;95853.09;5072626;28;1039;-48
2022/01/17 08:01:08;;;;;;;;;;;;;;;-0.60;60.00;95899.56;5072672;28;1113;-49
2022/01/17 08:03:34;;;;;;;;;;;;;;;-0.66;61.43;95941.88;5072554;28;1195;-49
2022/01/17 08:06:00;;;;;;;;;;;;;;;-0.45;59.71;95961.84;5076749;28;1163;-49
2022/01/17 08:08:26;;;;;;;;;;;;;;;-0.26;59.17;95950.44;5076750;28;1140;-49
2022/01/17 08:10:52;;;;;;;;;;;;;;;-0.45;59.70;95929.47;5076759;28;965;-49
2022/01/17 08:13:20;;;;;;;;;;;;;;;-0.60;61.19;95936.31;5076103;28;1985;-49
2022/01/17 08:15:47;;;;;;;;;;;;;;;-0.51;60.56;95892.97;5076387;28;1096;-48
2022/01/17 08:18:13;;;;;;;;;;;;;;;-0.33;60.26;95857.06;5076146;28;985;-48
2022/01/17 08:20:40;;;;;;;;;;;;;;;-0.32;60.39;95851.72;5076635;28;1052;-48
2022/01/17 08:23:06;;;;;;;;;;;;;;;-0.03;58.52;95863.38;5076060;28;1021;-48
2022/01/17 08:25:32;;;;;;;;;;;;;;;0.19;59.06;95870.16;5076076;28;1109;-48
2022/01/17 08:27:58;;;;;;;;;;;;;;;-0.03;58.57;95873.06;5076033;28;977;-48
2022/01/17 08:30:24;;;;;;;;;;;;;;;0.09;58.99;95890.81;5076001;28;1128;-49
2022/01/17 08:32:51;;;;;;;;;;;;;;;0.56;57.68;95892.72;5075940;28;1913;-48
2022/01/17 08:35:20;;;;;;;;;;;;;;;0.87;58.35;95924.44;5074974;28;1171;-49
2022/01/17 08:37:46;;;;;;;;;;;;;;;1.05;57.50;95936.63;5075743;28;1318;-48
2022/01/17 08:40:12;;;;;;;;;;;;;;;1.13;58.75;95958.09;5076100;28;1112;-48
2022/01/17 08:42:38;;;;;;;;;;;;;;;1.30;57.97;95935.25;5075659;28;1084;-48
2022/01/17 08:45:09;;;;;;;;;;;;;;;1.31;58.04;95898.28;5075925;28;1057;-48
2022/01/17 08:47:35;;;;;;;;;;;;;;;1.09;59.06;95917.06;5075765;28;997;-48
2022/01/17 08:50:02;;;;;;;;;;;;;;;0.79;59.59;95914.31;5076066;28;993;-48
2022/01/17 08:52:29;;;;;;;;;;;;;;;1.27;58.66;95902.03;5075689;28;1917;-48
2022/01/17 08:54:55;;;;;;;;;;;;;;;1.16;58.55;95893.88;5075830;28;1008;-48
2022/01/17 08:57:21;;;;;;;;;;;;;;;1.26;58.53;95852.06;5075551;28;1040;-48
2022/01/17 08:59:47;;;;;;;;;;;;;;;0.86;59.45;95831.44;5075674;28;1096;-48
2022/01/17 09:02:13;;;;;;;;;;;;;;;0.77;59.77;95851.22;5075402;28;1897;-48
2022/01/17 09:04:42;;;;;;;;;;;;;;;1.34;57.72;95873.56;5075434;28;1847;-49
2022/01/17 09:07:11;;;;;;;;;;;;;;;2.83;53.44;95846.16;5075660;28;1012;-48
2022/01/17 09:09:37;;;;;;;;;;;;;;;4.15;49.69;95794.28;5075647;28;1061;-48
2022/01/17 09:12:05;;;;;;;;;;;;;;;5.67;46.25;95812.53;5075290;28;2013;-48
2022/01/17 09:14:31;;;;;;;;;;;;;;;7.58;42.29;95805.53;5075095;28;2028;-49
2022/01/17 09:16:57;;;;;;;;;;;;;;;9.49;38.29;95817.66;5075659;28;1036;-49
2022/01/17 09:19:23;;;;;;;;;;;;;;;10.99;34.78;95808.19;5075264;28;1132;-49
2022/01/17 09:21:49;;;;;;;;;;;;;;;11.87;33.45;95808.50;5075438;28;1013;-49
2022/01/17 09:24:15;;;;;;;;;;;;;;;11.84;32.77;95798.09;5074774;28;1088;-48
2022/01/17 09:26:41;;;;;;;;;;;;;;;11.50;32.98;95795.25;5075219;28;1005;-49
2022/01/17 09:29:07;;;;;;;;;;;;;;;11.58;33.82;95789.97;5074746;28;981;-49
2022/01/17 09:31:33;;;;;;;;;;;;;;;13.03;31.06;95777.97;5075035;28;2042;-49
2022/01/17 09:33:59;;;;;;;;;;;;;;;15.73;28.05;95804.00;5074732;28;1041;-49
2022/01/17 09:36:28;;;;;;;;;;;;;;;17.94;24.82;95789.34;5074777;28;1161;-50
2022/01/17 09:38:54;;;;;;;;;;;;;;;19.69;23.36;95780.47;5074573;28;1021;-50
2022/01/17 09:41:20;;;;;;;;;;;;;;;20.47;22.09;95788.22;5074998;28;1048;-48
2022/01/17 09:43:46;;;;;;;;;;;;;;;17.16;25.29;95765.50;5074438;28;1262;-47
2022/01/17 09:46:14;;;;;;;;;;;;;;;16.57;25.90;95770.84;5074913;28;1036;-47
2022/01/17 09:48:46;;;;;;;;;;;;;;;13.31;29.33;95757.16;5074461;28;1116;-46
2022/01/17 09:53:50;;;;;;;;;;;;;;;10.55;35.12;95736.56;5074546;28;966;-47
2022/01/17 09:56:16;;;;;;;;;;;;;;;17.19;26.15;95748.09;5074575;28;969;-47
2022/01/17 09:58:42;;;;;;;;;;;;;;;17.62;23.83;95750.06;5074117;28;1022;-48
2022/01/17 10:01:09;;;;;;;;;;;;;;;20.01;22.70;95747.41;5074201;28;992;-47
2022/01/17 10:03:37;;;;;;;;;;;;;;;20.58;21.24;95734.28;5074449;28;1024;-47
2022/01/17 10:06:03;;;;;;;;;;;;;;;21.25;20.81;95733.19;5074278;28;1879;-47
2022/01/17 10:08:29;;;;;;;;;;;;;;;21.19;20.19;95731.31;5074059;28;1037;-47
2022/01/17 10:11:01;;;;;;;;;;;;;;;21.70;20.32;95735.13;5074218;28;1122;-47
2022/01/17 10:13:29;;;;;;;;;;;;;;;22.58;18.66;95739.00;5073978;28;1025;-47
2022/01/17 10:15:55;;;;;;;;;;;;;;;23.47;18.37;95739.63;5074117;28;1043;-48
2022/01/17 10:18:24;;;;;;;;;;;;;;;23.24;18.62;95744.91;5074096;28;1044;-47
2022/01/17 10:21:24;;;;;;;;;;;;;;;22.62;18.54;95740.22;5073964;28;1870;-47
2022/01/17 10:35:08;;;;;;;;;;;;;;;12.59;30.80;95711.84;5033357;28;1216;-47
2022/01/17 10:37:34;;;;;;;;;;;;;;;15.74;26.32;95715.88;5065280;28;1041;-47
2022/01/17 10:40:01;;;;;;;;;;;;;;;19.46;22.21;95715.72;5073544;28;1096;-46
2022/01/17 10:42:34;;;;;;;;;;;;;;;21.35;20.06;95721.84;5073551;28;1089;-48
2022/01/17 10:45:03;;;;;;;;;;;;;;;17.46;23.71;95708.69;5073441;28;1046;-47
2022/01/17 10:47:29;;;;;;;;;;;;;;;14.40;27.88;95704.13;5073505;28;1025;-47
2022/01/17 10:49:57;;;;;;;;;;;;;;;11.72;31.78;95701.06;5073427;28;1033;-48
2022/01/17 10:52:33;;;;;;;;;;;;;;;11.39;32.24;95707.94;5073446;28;1906;-47
2022/01/17 10:55:02;;;;;;;;;;;;;;;10.98;32.83;95707.50;5073551;28;1037;-46
2022/01/17 10:57:32;;;;;;;;;;;;;;;10.49;33.39;95696.19;5073181;28;1029;-47
2022/01/17 10:59:58;;;;;;;;;;;;;;;9.94;34.81;95692.41;5073880;28;1012;-46
2022/01/17 11:02:25;;;;;;;;;;;;;;;9.97;35.63;95685.94;5073630;28;969;-49
2022/01/17 11:04:51;;;;;;;;;;;;;;;9.80;35.13;95678.66;5073459;28;1021;-49
2022/01/17 11:07:17;;;;;;;;;;;;;;;9.93;35.66;95679.19;5073291;28;1061;-49
2022/01/17 11:09:49;;;;;;;;;;;;;;;10.04;35.66;95672.84;5073427;28;981;-49
2022/01/17 11:12:17;;;;;;;;;;;;;;;10.11;35.88;95673.94;5073404;28;1979;-49
2022/01/17 11:14:44;;;;;;;;;;;;;;;10.27;34.61;95676.00;5072127;28;973;-49
2022/01/17 11:17:26;;;;;;;;;;;;;;;10.39;33.03;95677.53;5073130;28;1053;-49
2022/01/17 11:22:30;;;;;;;;;;;;;;;10.57;34.15;95674.94;5073640;28;1057;-49
2022/01/17 11:24:57;;;;;;;;;;;;;;;10.59;33.70;95666.75;5073191;28;1005;-49
2022/01/17 11:27:23;;;;;;;;;;;;;;;10.50;34.16;95658.63;5073130;28;969;-49
2022/01/17 11:29:49;;;;;;;;;;;;;;;10.34;35.10;95647.75;5072944;28;1097;-49
2022/01/17 11:32:16;;;;;;;;;;;;;;;10.14;35.64;95652.28;5073207;28;1918;-48
2022/01/17 11:34:42;;;;;;;;;;;;;;;9.84;36.41;95653.34;5073140;28;965;-48
2022/01/17 11:37:10;;;;;;;;;;;;;;;9.50;36.43;95656.50;5072863;28;1209;-48
2022/01/17 11:39:45;;;;;;;;;;;;;;;9.25;37.69;95647.25;5074504;28;1050;-49
2022/01/17 11:42:30;;;;;;;;;;;;;;;8.88;38.05;95631.91;5077114;28;1089;-49
2022/01/17 11:44:56;;;;;;;;;;;;;;;8.90;38.08;95628.16;5076846;28;1054;-49
2022/01/17 11:47:40;;;;;;;;;;;;;;;8.82;39.18;95617.34;5077226;28;1044;-48
2022/01/17 11:50:34;;;;;;;;;;;;;;;8.98;39.17;95628.28;5076615;28;1034;-49
2022/01/17 11:53:20;;;;;;;;;;;;;;;9.25;38.33;95623.22;5076737;28;1910;-49
2022/01/17 11:55:47;;;;;;;;;;;;;;;9.38;38.03;95605.09;5076619;28;1565;-49
2022/01/17 11:58:36;;;;;;;;;;;;;;;9.02;38.61;95598.69;5076461;28;1045;-49
2022/01/17 12:01:02;;;;;;;;;;;;;;;8.52;39.13;95588.97;5076638;28;1873;-49
2022/01/17 12:03:30;;;;;;;;;;;;;;;8.76;38.96;95597.41;5076733;28;966;-49
2022/01/17 12:05:59;;;;;;;;;;;;;;;9.28;37.99;95594.44;5076369;28;1049;-48
2022/01/17 12:08:27;;;;;;;;;;;;;;;9.51;37.75;95605.63;5076483;28;1053;-49
2022/01/17 12:11:03;;;;;;;;;;;;;;;9.37;37.48;95606.06;5076571;28;1033;-48
2022/01/17 12:13:35;;;;;;;;;;;;;;;9.36;37.85;95610.56;5076408;28;1910;-48
2022/01/17 12:16:10;;;;;;;;;;;;;;;9.22;37.94;95594.16;5075020;28;1083;-48
2022/01/17 12:18:36;;;;;;;;;;;;;;;8.99;38.27;95578.44;5076400;28;1045;-49
2022/01/17 12:21:21;;;;;;;;;;;;;;;8.93;38.60;95587.84;5076546;28;1051;-49
2022/01/17 12:23:47;;;;;;;;;;;;;;;8.82;38.94;95584.47;5076490;28;985;-48
2022/01/17 12:26:29;;;;;;;;;;;;;;;8.75;38.89;95565.53;5076302;28;964;-48
2022/01/17 12:28:56;;;;;;;;;;;;;;;8.52;39.27;95562.31;5075053;28;925;-49
2022/01/17 12:31:42;;;;;;;;;;;;;;;8.35;39.53;95563.78;5076145;28;1910;-49
2022/01/17 12:34:16;;;;;;;;;;;;;;;8.19;39.65;95551.84;5076035;28;1041;-48
2022/01/17 12:36:42;;;;;;;;;;;;;;;8.15;39.92;95561.06;5075955;28;1086;-49
2022/01/17 12:39:13;;;;;;;;;;;;;;;8.15;40.27;95549.56;5076238;28;1012;-48
2022/01/17 12:41:41;;;;;;;;;;;;;;;8.09;40.45;95539.47;5076120;28;1032;-48
2022/01/17 12:44:25;;;;;;;;;;;;;;;8.13;40.68;95541.72;5075748;28;1243;-49
2022/01/17 12:46:59;;;;;;;;;;;;;;;8.03;40.27;95556.84;5076019;28;1048;-47
2022/01/17 12:49:26;;;;;;;;;;;;;;;7.88;40.79;95551.03;5075505;28;1053;-48
2022/01/17 12:51:53;;;;;;;;;;;;;;;7.90;40.88;95545.56;5075448;28;1926;-48
2022/01/17 12:54:20;;;;;;;;;;;;;;;8.04;40.50;95533.69;5075999;28;1180;-47
2022/01/17 12:56:48;;;;;;;;;;;;;;;8.06;40.81;95521.91;5075792;28;1024;-48
2022/01/17 12:59:16;;;;;;;;;;;;;;;8.07;40.89;95520.13;5075692;28;977;-47
2022/01/17 13:01:44;;;;;;;;;;;;;;;8.01;40.62;95521.50;5075738;28;973;-47
2022/01/17 13:04:12;;;;;;;;;;;;;;;8.00;40.31;95522.47;5075496;28;1148;-48
2022/01/17 13:06:39;;;;;;;;;;;;;;;7.90;41.13;95514.47;5075285;28;1973;-48
2022/01/17 13:09:15;;;;;;;;;;;;;;;7.93;41.13;95518.66;5075452;28;1045;-48
2022/01/17 13:11:42;;;;;;;;;;;;;;;7.92;41.33;95519.66;5075245;28;1927;-49
2022/01/17 13:14:09;;;;;;;;;;;;;;;7.81;41.33;95488.66;5075566;28;1052;-48
2022/01/17 13:16:36;;;;;;;;;;;;;;;7.63;41.61;95491.13;5075351;28;1068;-48
2022/01/17 13:19:06;;;;;;;;;;;;;;;7.55;42.22;95483.81;5075604;28;1136;-48
2022/01/17 13:21:32;;;;;;;;;;;;;;;7.50;42.16;95488.69;5075086;28;1033;-48
2022/01/17 13:24:13;;;;;;;;;;;;;;;7.41;42.29;95492.97;5075094;28;1053;-48
2022/01/17 13:26:42;;;;;;;;;;;;;;;7.38;41.82;95477.31;5075214;28;1052;-48
2022/01/17 13:29:09;;;;;;;;;;;;;;;7.21;42.51;95472.63;5074819;28;1101;-48
2022/01/17 13:31:36;;;;;;;;;;;;;;;7.15;42.34;95467.81;5075002;28;1914;-49
2022/01/17 13:34:29;;;;;;;;;;;;;;;7.04;42.59;95468.75;5075248;28;969;-49
2022/01/17 13:36:57;;;;;;;;;;;;;;;6.88;43.03;95461.22;5071428;28;1447;-49
2022/01/17 13:39:24;;;;;;;;;;;;;;;6.90;43.04;95455.78;5075064;28;1012;-49
2022/01/17 13:42:00;;;;;;;;;;;;;;;6.88;43.06;95452.41;5074766;28;1231;-50
2022/01/17 13:44:30;;;;;;;;;;;;;;;6.77;43.33;95459.50;5075042;28;1032;-49
2022/01/17 13:46:57;;;;;;;;;;;;;;;6.77;43.60;95443.56;5074799;28;1037;-48